Time;durP1;ratioP1;P1;durP2;ratioP2;P2;SDS_P1;SDS_P2;PMS_P1;PMS_P2;Temp;Humidity;BMP_temperature;BMP_pressure;BME280_temperature;BME280_humidity;BME280_pressure;Samples;Min_cycle;Max_cycle;Signal;HPM_P1;HPM_P2
2022/09/11 00:00:58;;;;;;;14.70;6.10;;;17.60;99.90;;;;;;5050601;28;20487;-67
2022/09/11 00:03:26;;;;;;;20.20;7.07;;;17.70;99.90;;;;;;5050882;28;20602;-63
2022/09/11 00:05:53;;;;;;;21.07;5.50;;;17.60;99.90;;;;;;5004615;28;21219;-65
2022/09/11 00:08:21;;;;;;;9.60;3.97;;;17.70;99.90;;;;;;5029169;28;20496;-66
2022/09/11 00:10:48;;;;;;;12.33;5.20;;;;;;;;;;5032786;28;20960;-63
2022/09/11 00:13:20;;;;;;;22.60;5.50;;;17.60;99.90;;;;;;5028084;28;20491;-63
2022/09/11 00:15:48;;;;;;;20.67;5.87;;;17.70;99.90;;;;;;5028595;28;20975;-68
2022/09/11 00:18:20;;;;;;;20.13;5.50;;;17.80;99.90;;;;;;5031160;28;20495;-68
2022/09/11 00:20:49;;;;;;;18.03;4.70;;;17.80;99.90;;;;;;5031185;28;20607;-67
2022/09/11 00:23:16;;;;;;;11.90;4.77;;;17.80;99.90;;;;;;5032624;28;20637;-67
2022/09/11 00:25:45;;;;;;;11.53;5.07;;;17.90;99.90;;;;;;5028792;28;20913;-63
2022/09/11 00:28:14;;;;;;;19.43;5.63;;;17.70;99.90;;;;;;5031360;28;20985;-67
2022/09/11 00:30:42;;;;;;;8.60;4.13;;;17.70;99.90;;;;;;5031664;28;20534;-66
2022/09/11 00:33:09;;;;;;;11.03;4.87;;;;;;;;;;5032207;28;20540;-66
2022/09/11 00:35:37;;;;;;;15.63;5.80;;;17.80;99.90;;;;;;5027456;28;20684;-70
2022/09/11 00:38:03;;;;;;;9.27;5.43;;;17.70;99.90;;;;;;5031069;28;20487;-68
2022/09/11 00:40:30;;;;;;;9.50;5.43;;;17.70;99.90;;;;;;5028921;28;20487;-66
2022/09/11 00:42:57;;;;;;;10.70;5.10;;;17.60;99.90;;;;;;5029920;28;20510;-70
2022/09/11 00:45:27;;;;;;;12.00;5.73;;;17.60;99.90;;;;;;5028616;28;20477;-65
2022/09/11 00:47:59;;;;;;;9.80;4.87;;;17.60;99.90;;;;;;5043711;28;20472;-68
2022/09/11 00:50:30;;;;;;;12.60;5.50;;;17.60;99.90;;;;;;5039503;28;20865;-67
2022/09/11 00:53:01;;;;;;;10.90;5.30;;;17.60;99.90;;;;;;5010897;28;20480;-63
2022/09/11 00:55:32;;;;;;;16.07;6.63;;;17.60;99.90;;;;;;5023807;28;20473;-66
2022/09/11 00:58:03;;;;;;;13.77;6.70;;;17.70;99.90;;;;;;5031249;28;20478;-68
2022/09/11 01:00:30;;;;;;;25.60;7.80;;;;;;;;;;5028864;28;20511;-64
2022/09/11 01:02:57;;;;;;;9.60;4.80;;;17.80;99.90;;;;;;5029695;28;20552;-63
2022/09/11 01:05:26;;;;;;;14.83;5.57;;;;;;;;;;5029992;28;20899;-66
2022/09/11 01:07:55;;;;;;;27.77;6.00;;;17.80;99.90;;;;;;5050896;28;20468;-66
2022/09/11 01:10:31;;;;;;;13.93;5.97;;;17.90;99.90;;;;;;5049046;28;21379;-71
2022/09/11 01:13:05;;;;;;;17.23;7.53;;;17.80;99.90;;;;;;5019701;28;20484;-67
2022/09/11 01:15:40;;;;;;;25.33;6.97;;;17.90;99.90;;;;;;5025971;28;20498;-69
2022/09/11 01:18:11;;;;;;;14.20;7.30;;;;;;;;;;5028689;28;20865;-68
2022/09/11 01:20:53;;;;;;;22.60;6.50;;;17.80;99.90;;;;;;5029685;28;21019;-66
2022/09/11 01:24:00;;;;;;;22.20;6.50;;;17.70;99.90;;;;;;5029369;28;20989;-68
2022/09/11 01:26:42;;;;;;;11.73;7.00;;;17.70;99.90;;;;;;4958614;28;20457;-67
2022/09/11 01:29:18;;;;;;;19.80;6.57;;;17.70;99.90;;;;;;5039715;28;20487;-63
2022/09/11 01:31:51;;;;;;;6.50;5.20;;;;;;;;;;5030098;28;20563;-63
2022/09/11 01:34:23;;;;;;;19.77;5.40;;;17.80;99.90;;;;;;5013142;28;20474;-61
2022/09/11 01:36:53;;;;;;;11.80;6.53;;;;;;;;;;5022387;28;20558;-68
2022/09/11 01:39:24;;;;;;;22.80;6.20;;;17.80;99.90;;;;;;5021220;28;20474;-68
2022/09/11 01:41:53;;;;;;;13.80;5.50;;;;;;;;;;5017285;28;20480;-66
2022/09/11 01:44:26;;;;;;;19.93;6.20;;;17.80;99.90;;;;;;5018956;28;20485;-66
2022/09/11 01:46:53;;;;;;;25.47;7.07;;;17.80;99.90;;;;;;5024666;28;21254;-67
2022/09/11 01:49:24;;;;;;;11.70;5.90;;;17.80;99.90;;;;;;5024591;28;20480;-66
2022/09/11 01:51:56;;;;;;;11.90;5.80;;;17.80;99.90;;;;;;5022523;28;20809;-65
2022/09/11 01:54:27;;;;;;;19.67;6.53;;;17.90;99.90;;;;;;5017554;28;20481;-67
2022/09/11 01:56:58;;;;;;;8.33;5.90;;;18.00;99.90;;;;;;5028313;28;21036;-64
2022/09/11 01:59:31;;;;;;;18.73;6.63;;;18.00;99.90;;;;;;5048280;28;20554;-65
2022/09/11 02:02:02;;;;;;;16.70;6.80;;;18.10;99.90;;;;;;5047960;28;20478;-61
2022/09/11 02:04:33;;;;;;;10.53;6.77;;;18.00;99.90;;;;;;5041559;28;20533;-67
2022/09/11 02:07:05;;;;;;;11.13;6.80;;;17.80;99.90;;;;;;5025722;28;20476;-64
2022/09/11 02:09:36;;;;;;;12.80;7.40;;;17.80;99.90;;;;;;5029336;28;20980;-69
2022/09/11 02:12:07;;;;;;;18.27;6.13;;;17.80;99.90;;;;;;5030412;28;20707;-66
2022/09/11 02:14:40;;;;;;;16.03;9.00;;;;;;;;;;5021483;28;20491;-67
2022/09/11 02:17:15;;;;;;;15.43;6.60;;;17.70;99.90;;;;;;5028806;28;20992;-69
2022/09/11 02:19:42;;;;;;;14.67;7.03;;;17.70;99.90;;;;;;5029973;28;20476;-61
2022/09/11 02:22:09;;;;;;;31.83;11.83;;;;;;;;;;5023947;28;20856;-65
2022/09/11 02:24:35;;;;;;;91.67;16.63;;;17.80;99.90;;;;;;5022735;28;20484;-67
2022/09/11 02:27:06;;;;;;;21.63;8.63;;;17.80;99.90;;;;;;5027779;28;20491;-65
2022/09/11 02:29:34;;;;;;;41.53;16.80;;;17.80;99.90;;;;;;5014052;28;20902;-62
2022/09/11 02:32:02;;;;;;;17.03;7.30;;;17.90;99.90;;;;;;5029907;28;20841;-63
2022/09/11 02:34:32;;;;;;;23.07;8.00;;;17.90;99.90;;;;;;5045371;28;20471;-64
2022/09/11 02:37:11;;;;;;;22.63;7.70;;;18.00;99.90;;;;;;5025063;28;20480;-67
2022/09/11 02:39:48;;;;;;;15.93;7.03;;;;;;;;;;5051026;28;20483;-65
2022/09/11 02:42:34;;;;;;;18.80;7.30;;;18.00;99.90;;;;;;5030594;28;20461;-65
2022/09/11 02:45:11;;;;;;;11.03;6.87;;;18.00;99.90;;;;;;5001434;28;20468;-67
2022/09/11 02:47:43;;;;;;;12.63;7.37;;;;;;;;;;5021288;28;20877;-64
2022/09/11 02:50:20;;;;;;;25.63;9.00;;;18.10;99.90;;;;;;5032536;28;20542;-65
2022/09/11 02:52:49;;;;;;;16.27;7.23;;;;;;;;;;5034504;28;20518;-68
2022/09/11 02:55:22;;;;;;;28.13;9.10;;;17.90;99.90;;;;;;5031646;28;20995;-65
2022/09/11 02:57:54;;;;;;;19.90;7.50;;;17.90;99.90;;;;;;5033207;28;20881;-63
2022/09/11 03:00:21;;;;;;;20.40;8.37;;;17.90;99.90;;;;;;5030167;28;20487;-68
2022/09/11 03:02:49;;;;;;;17.40;6.80;;;17.90;99.90;;;;;;5023869;28;20495;-65
2022/09/11 03:05:17;;;;;;;19.70;7.80;;;;;;;;;;5028483;28;20479;-65
2022/09/11 03:07:44;;;;;;;20.93;6.43;;;17.80;99.90;;;;;;5031015;28;20742;-65
2022/09/11 03:10:11;;;;;;;13.20;7.50;;;17.80;99.90;;;;;;5035019;28;20480;-65
2022/09/11 03:12:38;;;;;;;19.53;8.13;;;17.80;99.90;;;;;;5032098;28;20558;-68
2022/09/11 03:15:06;;;;;;;31.07;8.10;;;;;;;;;;5028083;28;20722;-69
2022/09/11 03:17:33;;;;;;;19.03;10.00;;;;;;;;;;5032486;28;20481;-64
2022/09/11 03:20:01;;;;;;;12.20;8.03;;;17.50;99.90;;;;;;5028398;28;20473;-68
2022/09/11 03:22:28;;;;;;;26.83;10.73;;;17.60;99.90;;;;;;5019745;28;20481;-68
2022/09/11 03:24:55;;;;;;;20.07;8.73;;;17.50;99.90;;;;;;5029217;28;20666;-64
2022/09/11 03:27:22;;;;;;;15.40;9.50;;;17.50;99.90;;;;;;5034860;28;20812;-68
2022/09/11 03:29:49;;;;;;;31.73;9.17;;;;;;;;;;5023351;28;21034;-67
2022/09/11 03:32:16;;;;;;;25.67;9.40;;;17.40;99.90;;;;;;5034848;28;20845;-67
2022/09/11 03:34:43;;;;;;;18.73;9.17;;;;;;;;;;5028646;28;21035;-66
2022/09/11 03:37:11;;;;;;;23.43;8.70;;;17.40;99.90;;;;;;5034384;28;20495;-64
2022/09/11 03:39:38;;;;;;;19.23;9.57;;;17.40;99.90;;;;;;5034273;28;20543;-65
2022/09/11 03:42:05;;;;;;;19.63;10.00;;;17.30;99.90;;;;;;5035998;28;20554;-70
2022/09/11 03:44:31;;;;;;;27.10;10.67;;;17.30;99.90;;;;;;5030316;28;21478;-67
2022/09/11 03:46:59;;;;;;;18.40;10.00;;;17.30;99.90;;;;;;5035845;28;20487;-69
2022/09/11 03:49:26;;;;;;;23.27;11.00;;;;;;;;;;5028553;28;20753;-64
2022/09/11 03:51:53;;;;;;;41.43;10.70;;;;;;;;;;5033237;28;20507;-65
2022/09/11 03:54:21;;;;;;;26.60;9.67;;;17.50;99.90;;;;;;5029683;28;20489;-67
2022/09/11 03:56:48;;;;;;;15.03;7.93;;;17.50;99.90;;;;;;5034371;28;20488;-62
2022/09/11 03:59:14;;;;;;;20.13;9.17;;;17.70;99.90;;;;;;5030925;28;20606;-66
2022/09/11 04:01:41;;;;;;;16.43;10.27;;;17.70;99.90;;;;;;5032805;28;20873;-68
2022/09/11 04:04:09;;;;;;;23.90;12.60;;;;;;;;;;5035120;28;20905;-63
2022/09/11 04:06:36;;;;;;;31.40;13.20;;;;;;;;;;5038401;28;20476;-68
2022/09/11 04:09:03;;;;;;;21.50;11.57;;;18.00;99.90;;;;;;5037663;28;20472;-66
2022/09/11 04:11:31;;;;;;;26.43;11.20;;;18.00;99.90;;;;;;5033744;28;21378;-64
2022/09/11 04:13:58;;;;;;;25.00;12.60;;;18.10;99.90;;;;;;5029615;28;20492;-64
2022/09/11 04:16:25;;;;;;;30.17;12.37;;;18.00;99.90;;;;;;5035313;28;20495;-65
2022/09/11 04:18:53;;;;;;;17.17;10.30;;;18.00;99.90;;;;;;5034331;28;20900;-60
2022/09/11 04:21:20;;;;;;;45.17;12.93;;;18.00;99.90;;;;;;5033935;28;20468;-68
2022/09/11 04:23:51;;;;;;;27.83;11.50;;;18.00;99.90;;;;;;5034562;28;20518;-66
2022/09/11 04:26:19;;;;;;;31.10;12.17;;;;;;;;;;5034001;28;20893;-66
2022/09/11 04:28:47;;;;;;;26.60;12.37;;;17.90;99.90;;;;;;5032812;28;20479;-62
2022/09/11 04:31:15;;;;;;;25.27;11.63;;;17.80;99.90;;;;;;5032856;28;20488;-66
2022/09/11 04:33:42;;;;;;;30.57;13.97;;;17.80;99.90;;;;;;5032781;28;20866;-66
2022/09/11 04:36:11;;;;;;;24.03;13.10;;;;;;;;;;5035332;28;20446;-64
2022/09/11 04:38:40;;;;;;;27.73;14.10;;;;;;;;;;5039279;28;20492;-66
2022/09/11 04:41:07;;;;;;;37.70;12.50;;;17.80;99.90;;;;;;5039299;28;20494;-64
2022/09/11 04:43:35;;;;;;;25.90;16.23;;;17.70;99.90;;;;;;5042092;28;20487;-63
2022/09/11 04:46:06;;;;;;;32.67;12.67;;;17.70;99.90;;;;;;5056858;28;20832;-65
2022/09/11 04:48:32;;;;;;;39.63;15.40;;;17.60;99.90;;;;;;5072964;28;21013;-67
2022/09/11 04:51:02;;;;;;;39.30;14.47;;;17.50;99.90;;;;;;5062875;28;20487;-68
2022/09/11 04:53:30;;;;;;;28.83;14.10;;;17.60;99.90;;;;;;5050326;28;20487;-62
2022/09/11 04:56:05;;;;;;;28.80;12.20;;;17.60;99.90;;;;;;5063814;28;20490;-65
2022/09/11 04:58:32;;;;;;;20.03;13.67;;;17.60;99.90;;;;;;5065478;28;20993;-64
2022/09/11 05:00:59;;;;;;;24.70;13.67;;;;;;;;;;5041169;28;20483;-71
2022/09/11 05:03:28;;;;;;;23.93;12.50;;;17.60;99.90;;;;;;5063167;28;20819;-64
2022/09/11 05:05:56;;;;;;;26.37;12.40;;;;;;;;;;5053315;28;20486;-67
2022/09/11 05:08:25;;;;;;;45.00;14.47;;;17.60;99.90;;;;;;5050851;28;21052;-67
2022/09/11 05:10:52;;;;;;;25.70;12.77;;;17.60;99.90;;;;;;5052798;28;20584;-73
2022/09/11 05:13:19;;;;;;;30.70;12.67;;;17.60;99.90;;;;;;5058947;28;20481;-64
2022/09/11 05:15:46;;;;;;;41.77;14.03;;;17.50;99.90;;;;;;5054860;28;20478;-70
2022/09/11 05:18:13;;;;;;;28.67;14.73;;;;;;;;;;5065104;28;20470;-69
2022/09/11 05:20:42;;;;;;;34.67;14.47;;;17.90;99.90;;;;;;5072716;28;20891;-72
2022/09/11 05:23:11;;;;;;;41.00;13.80;;;17.50;99.90;;;;;;5041192;28;20510;-65
2022/09/11 05:25:38;;;;;;;23.87;14.83;;;17.50;99.90;;;;;;5050903;28;20804;-63
2022/09/11 05:28:05;;;;;;;24.80;15.13;;;17.30;99.90;;;;;;5064231;28;20495;-66
2022/09/11 05:30:31;;;;;;;44.87;19.17;;;17.30;99.90;;;;;;5069607;28;20794;-65
2022/09/11 05:32:58;;;;;;;35.93;17.73;;;17.40;99.90;;;;;;5052803;28;20484;-68
2022/09/11 05:35:25;;;;;;;43.77;18.20;;;17.40;99.90;;;;;;5053852;28;22178;-66
2022/09/11 05:37:53;;;;;;;40.23;15.77;;;17.40;99.90;;;;;;5063127;28;20485;-71
2022/09/11 05:40:20;;;;;;;20.87;13.60;;;;;;;;;;5030862;28;20487;-70
2022/09/11 05:42:47;;;;;;;23.30;15.23;;;17.60;99.90;;;;;;5045008;28;20484;-73
2022/09/11 05:45:14;;;;;;;30.10;14.07;;;17.70;99.90;;;;;;5052307;28;20813;-67
2022/09/11 05:47:41;;;;;;;28.80;15.37;;;17.70;99.90;;;;;;5063154;28;20486;-67
2022/09/11 05:50:08;;;;;;;30.93;16.30;;;17.70;99.90;;;;;;5058120;28;20503;-63
2022/09/11 05:52:35;;;;;;;39.33;14.73;;;17.70;99.90;;;;;;5056973;28;20491;-69
2022/09/11 05:55:03;;;;;;;22.87;13.53;;;17.70;99.90;;;;;;5045645;28;20487;-64
2022/09/11 05:57:30;;;;;;;26.90;15.73;;;;;;;;;;5053924;28;20553;-69
2022/09/11 05:59:57;;;;;;;27.90;13.33;;;17.70;99.90;;;;;;5062918;28;20551;-65
2022/09/11 06:02:24;;;;;;;23.80;13.40;;;17.70;99.90;;;;;;5060444;28;20993;-69
2022/09/11 06:04:51;;;;;;;23.57;12.90;;;17.30;99.90;;;;;;5058096;28;20478;-67
2022/09/11 06:07:17;;;;;;;31.97;13.60;;;17.70;99.90;;;;;;5057148;28;20947;-62
2022/09/11 06:09:44;;;;;;;22.17;12.90;;;17.70;99.90;;;;;;5057336;28;20885;-66
2022/09/11 06:12:12;;;;;;;22.33;13.43;;;17.70;99.90;;;;;;5073444;28;20933;-64
2022/09/11 06:14:39;;;;;;;30.93;13.47;;;;;;;;;;5072289;28;20470;-64
2022/09/11 06:17:06;;;;;;;22.20;12.63;;;;;;;;;;5071307;28;21727;-64
2022/09/11 06:19:33;;;;;;;21.50;13.00;;;;;;;;;;5065259;28;20482;-63
2022/09/11 06:22:00;;;;;;;29.03;12.73;;;;;;;;;;5076247;28;20474;-67
2022/09/11 06:24:27;;;;;;;22.47;13.70;;;17.80;99.90;;;;;;5046824;28;20869;-66
2022/09/11 06:26:54;;;;;;;21.43;12.80;;;17.80;99.90;;;;;;5051140;28;21380;-71
2022/09/11 06:29:22;;;;;;;30.60;12.97;;;17.90;99.90;;;;;;5046388;28;21016;-64
2022/09/11 06:31:50;;;;;;;22.87;11.73;;;;;;;;;;5036435;28;20527;-68
2022/09/11 06:34:18;;;;;;;27.13;13.10;;;18.00;99.90;;;;;;5043466;28;20488;-63
2022/09/11 06:36:46;;;;;;;36.67;14.47;;;18.00;99.90;;;;;;5042470;28;21247;-68
2022/09/11 06:39:13;;;;;;;27.87;12.60;;;;;;;;;;5034040;28;20593;-67
2022/09/11 06:41:39;;;;;;;30.50;12.97;;;18.10;99.90;;;;;;5045583;28;20483;-64
2022/09/11 06:44:08;;;;;;;25.17;12.60;;;18.10;99.90;;;;;;5035526;28;20562;-65
2022/09/11 06:46:36;;;;;;;31.17;12.40;;;18.10;99.90;;;;;;5040173;28;20487;-67
2022/09/11 06:49:05;;;;;;;21.67;12.30;;;;;;;;;;5036461;28;20476;-66
2022/09/11 06:51:32;;;;;;;16.93;12.87;;;18.20;99.90;;;;;;5041686;28;20477;-70
2022/09/11 06:54:00;;;;;;;29.60;11.90;;;18.20;99.90;;;;;;5050251;28;20495;-66
2022/09/11 06:56:29;;;;;;;19.90;13.00;;;18.10;99.90;;;;;;5033662;28;20469;-66
2022/09/11 06:58:56;;;;;;;32.43;15.53;;;;;;;;;;5034721;28;20472;-66
2022/09/11 07:01:23;;;;;;;26.77;12.97;;;;;;;;;;5035653;28;20722;-67
2022/09/11 07:03:54;;;;;;;22.50;13.37;;;18.30;99.90;;;;;;5033202;28;20479;-65
2022/09/11 07:06:23;;;;;;;18.83;12.27;;;18.40;99.90;;;;;;5033893;28;20491;-70
2022/09/11 07:08:52;;;;;;;26.33;12.83;;;;;;;;;;5031773;28;20480;-66
2022/09/11 07:11:19;;;;;;;26.37;13.63;;;;;;;;;;5042822;28;21131;-70
2022/09/11 07:13:47;;;;;;;26.10;13.17;;;;;;;;;;5038847;28;20527;-70
2022/09/11 07:16:13;;;;;;;24.20;14.47;;;18.60;99.90;;;;;;5039659;28;20556;-65
2022/09/11 07:18:42;;;;;;;31.00;14.73;;;18.70;99.90;;;;;;5054576;28;20482;-64
2022/09/11 07:21:12;;;;;;;21.47;12.00;;;18.70;99.90;;;;;;5054983;28;20557;-66
2022/09/11 07:23:40;;;;;;;28.77;15.53;;;18.70;99.90;;;;;;5050549;28;20762;-69
2022/09/11 07:26:10;;;;;;;25.47;14.17;;;18.60;99.90;;;;;;5054359;28;20483;-71
2022/09/11 07:28:37;;;;;;;35.73;17.60;;;18.60;99.90;;;;;;5039357;28;20487;-65
2022/09/11 07:31:10;;;;;;;26.23;14.83;;;18.60;99.90;;;;;;5040603;28;20898;-65
2022/09/11 07:33:38;;;;;;;29.37;16.13;;;18.70;99.90;;;;;;5043497;28;20555;-66
2022/09/11 07:36:10;;;;;;;21.30;13.60;;;18.70;99.90;;;;;;5038774;28;20895;-64
2022/09/11 07:38:38;;;;;;;30.33;13.33;;;18.80;99.90;;;;;;5033474;28;20826;-65
2022/09/11 07:41:05;;;;;;;24.93;14.00;;;18.90;99.90;;;;;;5043406;28;20511;-69
2022/09/11 07:43:33;;;;;;;26.30;15.60;;;18.90;99.90;;;;;;5039204;28;20480;-67
2022/09/11 07:46:01;;;;;;;26.30;12.33;;;;;;;;;;5036070;28;20560;-68
2022/09/11 07:48:28;;;;;;;23.90;13.77;;;19.10;99.90;;;;;;5053741;28;20482;-65
2022/09/11 07:50:56;;;;;;;29.57;13.20;;;18.20;99.90;;;;;;5049568;28;20476;-68
2022/09/11 07:53:25;;;;;;;37.70;12.37;;;19.20;99.90;;;;;;5032085;28;20551;-67
2022/09/11 07:55:52;;;;;;;20.67;11.97;;;19.20;99.90;;;;;;5045288;28;20541;-68
2022/09/11 07:58:19;;;;;;;29.40;12.37;;;;;;;;;;5073480;28;20477;-67
2022/09/11 08:00:45;;;;;;;23.93;12.83;;;19.10;99.90;;;;;;5073911;28;20521;-69
2022/09/11 08:03:13;;;;;;;30.97;11.40;;;19.10;99.90;;;;;;5066676;28;20485;-66
2022/09/11 08:05:40;;;;;;;32.00;13.90;;;;;;;;;;5033955;28;20493;-68
2022/09/11 08:08:07;;;;;;;19.23;11.73;;;19.30;99.90;;;;;;5035612;28;20479;-64
2022/09/11 08:10:39;;;;;;;16.17;12.00;;;19.30;99.90;;;;;;5025138;28;20618;-67
2022/09/11 08:13:07;;;;;;;18.70;12.37;;;19.30;99.90;;;;;;5052558;28;20748;-70
2022/09/11 08:15:34;;;;;;;20.30;12.00;;;19.30;99.90;;;;;;5033885;28;20732;-70
2022/09/11 08:18:01;;;;;;;21.07;12.33;;;19.30;99.90;;;;;;5051435;28;20817;-66
2022/09/11 08:20:28;;;;;;;18.40;11.37;;;19.40;99.90;;;;;;5067089;28;20486;-69
2022/09/11 08:22:54;;;;;;;16.70;11.40;;;19.40;99.90;;;;;;5052834;28;20479;-70
2022/09/11 08:25:22;;;;;;;21.43;11.20;;;19.40;99.90;;;;;;5041265;28;20488;-69
2022/09/11 08:27:51;;;;;;;17.00;10.77;;;19.40;99.90;;;;;;5052744;28;20690;-68
2022/09/11 08:30:18;;;;;;;23.30;11.20;;;19.50;99.90;;;;;;5042819;28;20473;-65
2022/09/11 08:32:45;;;;;;;22.63;12.07;;;19.60;99.90;;;;;;5033232;28;20483;-68
2022/09/11 08:35:12;;;;;;;21.63;11.10;;;19.60;99.90;;;;;;5032679;28;20494;-69
2022/09/11 08:37:39;;;;;;;27.03;14.63;;;19.70;99.90;;;;;;5047271;28;20487;-69
2022/09/11 08:40:09;;;;;;;23.13;10.80;;;19.80;99.90;;;;;;5047336;28;20572;-69
2022/09/11 08:42:36;;;;;;;40.17;12.60;;;;;;;;;;5032536;28;20511;-69
2022/09/11 08:45:06;;;;;;;16.27;11.63;;;19.60;99.90;;;;;;5036251;28;20530;-66
2022/09/11 08:47:36;;;;;;;20.23;11.90;;;19.60;99.90;;;;;;5048797;28;20579;-63
2022/09/11 08:50:08;;;;;;;39.63;12.27;;;19.60;99.90;;;;;;5034130;28;20534;-62
2022/09/11 08:52:36;;;;;;;16.50;13.70;;;19.60;99.90;;;;;;5033682;28;20504;-67
2022/09/11 08:55:03;;;;;;;26.57;11.53;;;19.60;99.90;;;;;;5031847;28;20483;-64
2022/09/11 08:57:41;;;;;;;27.90;13.07;;;19.60;99.90;;;;;;5031849;28;20796;-63
2022/09/11 09:00:18;;;;;;;20.73;10.37;;;19.60;99.90;;;;;;5046237;28;20480;-67
2022/09/11 09:03:11;;;;;;;15.03;10.80;;;19.70;99.90;;;;;;5052508;28;20604;-67
2022/09/11 09:05:45;;;;;;;40.67;12.17;;;19.80;99.90;;;;;;5048235;28;21063;-68
2022/09/11 09:08:24;;;;;;;13.53;10.47;;;19.80;99.90;;;;;;5059369;28;20479;-65
2022/09/11 09:10:56;;;;;;;18.93;10.60;;;19.90;99.90;;;;;;5067112;28;20514;-66
2022/09/11 09:13:36;;;;;;;23.10;10.73;;;;;;;;;;5052556;28;20479;-67
2022/09/11 09:16:16;;;;;;;16.57;10.20;;;20.10;99.90;;;;;;5050469;28;20481;-72
2022/09/11 09:18:46;;;;;;;18.07;10.20;;;;;;;;;;5073189;28;20630;-66
2022/09/11 09:21:19;;;;;;;22.80;13.00;;;20.40;99.90;;;;;;5072767;28;20807;-68
2022/09/11 09:23:51;;;;;;;20.83;10.60;;;20.60;99.90;;;;;;5058796;28;20644;-66
2022/09/11 09:26:18;;;;;;;18.03;11.70;;;20.90;99.90;;;;;;5053256;28;20487;-69
2022/09/11 09:28:46;;;;;;;25.20;10.30;;;;;;;;;;5047920;28;20500;-68
2022/09/11 09:31:20;;;;;;;22.10;11.30;;;21.40;99.80;;;;;;5071975;28;20834;-67
2022/09/11 09:33:50;;;;;;;24.70;11.03;;;;;;;;;;5056328;28;20575;-64
2022/09/11 09:36:19;;;;;;;30.50;10.43;;;21.50;98.10;;;;;;5032337;28;20491;-66
2022/09/11 09:38:47;;;;;;;23.57;10.70;;;;;;;;;;5046145;28;21202;-63
2022/09/11 09:41:30;;;;;;;14.60;9.20;;;;;;;;;;5037001;28;20578;-66
2022/09/11 09:44:00;;;;;;;19.30;9.97;;;;;;;;;;5044108;28;20546;-67
2022/09/11 09:46:40;;;;;;;21.93;10.80;;;21.50;96.70;;;;;;5037630;28;20464;-67
2022/09/11 09:49:09;;;;;;;21.23;11.97;;;21.40;97.30;;;;;;5045266;28;20468;-71
2022/09/11 09:51:36;;;;;;;20.20;11.20;;;21.30;96.90;;;;;;5042194;28;20491;-71
2022/09/11 09:54:03;;;;;;;36.20;10.60;;;;;;;;;;5045949;28;20984;-64
2022/09/11 09:56:31;;;;;;;23.53;11.47;;;;;;;;;;5050546;28;20544;-70
2022/09/11 09:59:01;;;;;;;17.50;11.07;;;;;;;;;;5066345;28;20479;-68
2022/09/11 10:01:47;;;;;;;27.87;9.33;;;21.50;96.40;;;;;;5057540;28;20478;-67
2022/09/11 10:04:17;;;;;;;21.33;9.50;;;21.50;95.60;;;;;;5062910;28;20598;-66
2022/09/11 10:06:45;;;;;;;29.37;10.27;;;21.50;96.60;;;;;;5054863;28;20823;-68
2022/09/11 10:09:26;;;;;;;15.57;8.90;;;21.40;96.60;;;;;;5058831;28;20589;-67
2022/09/11 10:12:00;;;;;;;26.10;8.57;;;;;;;;;;5059777;28;20536;-66
2022/09/11 10:14:29;;;;;;;19.13;9.10;;;21.40;96.30;;;;;;5067629;28;20548;-63
2022/09/11 10:16:57;;;;;;;18.57;9.03;;;21.40;95.50;;;;;;5068862;28;20472;-63
2022/09/11 10:19:41;;;;;;;15.07;10.00;;;;;;;;;;5069837;28;20473;-68
2022/09/11 10:22:24;;;;;;;15.17;8.37;;;21.30;94.90;;;;;;5057235;28;20481;-67
2022/09/11 10:25:11;;;;;;;11.33;7.07;;;21.30;95.10;;;;;;5070154;28;20494;-66
2022/09/11 10:27:51;;;;;;;18.73;7.93;;;21.40;94.10;;;;;;5060138;28;20483;-66
2022/09/11 10:30:28;;;;;;;7.60;6.80;;;21.70;95.40;;;;;;5060615;28;20540;-66
2022/09/11 10:32:58;;;;;;;17.57;6.63;;;22.10;96.00;;;;;;5065657;28;20782;-67
2022/09/11 10:35:26;;;;;;;12.07;7.27;;;22.40;95.60;;;;;;5070317;28;20472;-67
2022/09/11 10:38:13;;;;;;;7.73;6.90;;;22.50;94.00;;;;;;5071412;28;20671;-65
2022/09/11 10:40:46;;;;;;;7.60;6.90;;;22.50;93.80;;;;;;5050745;28;21027;-66
2022/09/11 10:43:24;;;;;;;7.30;6.43;;;22.60;94.90;;;;;;5068185;28;20483;-65
2022/09/11 10:46:03;;;;;;;6.07;5.57;;;22.80;94.20;;;;;;5066526;28;20480;-69
2022/09/11 10:48:31;;;;;;;14.13;7.00;;;22.80;93.60;;;;;;5056904;28;20822;-63
2022/09/11 10:51:11;;;;;;;12.40;6.23;;;22.80;92.70;;;;;;5073296;28;20843;-67
2022/09/11 10:53:43;;;;;;;12.90;7.40;;;;;;;;;;5058685;28;20478;-65
2022/09/11 10:56:10;;;;;;;12.77;6.30;;;22.90;93.50;;;;;;5059981;28;20473;-66
2022/09/11 10:58:39;;;;;;;9.70;6.53;;;;;;;;;;5062946;28;21060;-68
2022/09/11 11:01:06;;;;;;;20.10;6.60;;;;;;;;;;5037773;28;20442;-67
2022/09/11 11:03:35;;;;;;;21.13;8.17;;;22.70;93.30;;;;;;5052683;28;21126;-68
2022/09/11 11:06:18;;;;;;;10.90;6.70;;;23.00;95.90;;;;;;5057133;28;20489;-65
2022/09/11 11:08:53;;;;;;;12.93;6.13;;;;;;;;;;5042639;28;20540;-68
2022/09/11 11:11:38;;;;;;;9.27;7.10;;;22.80;93.70;;;;;;5056517;28;21036;-69
2022/09/11 11:14:20;;;;;;;16.17;7.10;;;;;;;;;;5043222;28;20445;-66
2022/09/11 11:16:58;;;;;;;13.17;6.87;;;23.10;95.20;;;;;;5060095;28;20611;-70
2022/09/11 11:19:44;;;;;;;10.50;6.40;;;23.20;93.80;;;;;;5063021;28;21130;-67
2022/09/11 11:22:25;;;;;;;34.30;8.10;;;23.30;92.90;;;;;;5027139;28;20484;-66
2022/09/11 11:25:04;;;;;;;11.50;6.80;;;23.50;93.80;;;;;;5059070;28;20462;-68
2022/09/11 11:27:54;;;;;;;15.63;6.63;;;23.30;92.20;;;;;;5032194;28;20488;-68
2022/09/11 11:30:27;;;;;;;8.23;5.00;;;23.40;92.30;;;;;;5050713;28;20481;-67
2022/09/11 11:33:18;;;;;;;7.57;5.97;;;23.30;92.10;;;;;;5034312;28;20455;-67
2022/09/11 11:35:56;;;;;;;11.77;7.70;;;;;;;;;;5044945;28;21069;-64
2022/09/11 11:38:30;;;;;;;9.67;7.77;;;23.50;93.80;;;;;;5044270;28;20704;-68
2022/09/11 11:41:02;;;;;;;12.10;7.53;;;;;;;;;;5053315;28;20498;-66
2022/09/11 11:43:33;;;;;;;14.40;7.10;;;23.40;92.80;;;;;;5030583;28;20940;-72
2022/09/11 11:46:09;;;;;;;17.13;7.30;;;23.30;92.20;;;;;;5036098;28;21000;-70
2022/09/11 11:48:40;;;;;;;25.30;7.13;;;23.20;92.60;;;;;;5046863;28;20452;-67
2022/09/11 11:51:10;;;;;;;13.83;7.27;;;;;;;;;;5055142;28;20491;-66
2022/09/11 11:53:39;;;;;;;11.40;7.50;;;;;;;;;;5033875;28;20443;-64
2022/09/11 11:56:10;;;;;;;15.37;7.00;;;;;;;;;;5028862;28;20952;-65
2022/09/11 11:58:45;;;;;;;14.83;7.83;;;;;;;;;;5044998;28;20461;-67
2022/09/11 12:01:19;;;;;;;27.50;7.80;;;22.30;93.40;;;;;;5036492;28;20452;-67
2022/09/11 12:03:51;;;;;;;20.20;7.17;;;22.40;94.20;;;;;;5049504;28;20504;-67
2022/09/11 12:06:20;;;;;;;16.97;7.20;;;;;;;;;;5053400;28;20514;-67
2022/09/11 12:08:47;;;;;;;7.10;6.40;;;22.60;94.10;;;;;;5045708;28;20580;-66
2022/09/11 12:11:18;;;;;;;7.00;6.40;;;22.80;93.30;;;;;;5037461;28;20607;-64
2022/09/11 12:13:47;;;;;;;11.33;5.93;;;22.70;93.10;;;;;;5041561;28;20994;-64
2022/09/11 12:16:19;;;;;;;9.67;5.77;;;23.10;93.50;;;;;;5060851;28;20449;-68
2022/09/11 12:19:04;;;;;;;9.40;5.63;;;23.50;93.00;;;;;;5047007;28;20455;-68
2022/09/11 12:21:36;;;;;;;11.23;6.00;;;;;;;;;;5052696;28;20796;-67
2022/09/11 12:24:17;;;;;;;7.83;5.50;;;24.00;92.30;;;;;;5051003;28;20454;-65
2022/09/11 12:26:44;;;;;;;9.63;5.37;;;24.00;91.80;;;;;;5031440;28;20729;-66
2022/09/11 12:29:52;;;;;;;9.20;5.93;;;23.90;91.90;;;;;;5036219;28;20867;-65
2022/09/11 12:32:41;;;;;;;8.30;5.30;;;;;;;;;;4946410;28;20482;-65
2022/09/11 12:35:18;;;;;;;9.33;4.73;;;;;;;;;;5043967;28;21046;-66
2022/09/11 12:37:51;;;;;;;12.57;4.80;;;23.60;91.50;;;;;;5024443;28;21021;-66
2022/09/11 12:40:24;;;;;;;6.87;4.23;;;23.50;91.50;;;;;;5039176;28;21121;-67
2022/09/11 12:43:06;;;;;;;7.90;4.40;;;23.40;91.90;;;;;;5032706;28;20937;-65
2022/09/11 12:45:35;;;;;;;17.97;5.27;;;23.30;91.40;;;;;;5039773;28;20458;-66
2022/09/11 12:48:07;;;;;;;8.33;4.80;;;;;;;;;;5036214;28;20511;-68
2022/09/11 12:50:35;;;;;;;11.07;4.87;;;23.00;90.80;;;;;;5040817;28;20499;-66
2022/09/11 12:53:04;;;;;;;9.23;4.60;;;23.10;91.20;;;;;;5047943;28;20456;-67
2022/09/11 12:55:34;;;;;;;9.10;4.10;;;;;;;;;;5040526;28;20474;-67
2022/09/11 12:58:05;;;;;;;10.17;4.77;;;23.60;91.30;;;;;;5039350;28;20975;-68
2022/09/11 13:00:38;;;;;;;8.00;4.33;;;23.70;91.60;;;;;;5037608;28;20675;-65
2022/09/11 13:03:06;;;;;;;15.90;4.70;;;;;;;;;;5051676;28;20891;-65
2022/09/11 13:05:36;;;;;;;7.63;4.50;;;23.80;90.70;;;;;;5033982;28;20553;-65
2022/09/11 13:08:07;;;;;;;10.13;4.73;;;;;;;;;;5046360;28;20462;-67
2022/09/11 13:10:35;;;;;;;11.20;3.90;;;23.90;90.70;;;;;;5035216;28;21223;-64
2022/09/11 13:13:04;;;;;;;15.30;4.90;;;;;;;;;;5036361;28;20486;-64
2022/09/11 13:15:42;;;;;;;7.83;4.50;;;24.10;89.60;;;;;;5028496;28;20458;-64